Time;durP1;ratioP1;P1;durP2;ratioP2;P2;SDS_P1;SDS_P2;PMS_P1;PMS_P2;Temp;Humidity;BMP_temperature;BMP_pressure;BME280_temperature;BME280_humidity;BME280_pressure;Samples;Min_cycle;Max_cycle;Signal;HPM_P1;HPM_P2
2021/12/25 00:03:24;;;;;;;10.45;2.53;;;;;;;-4.58;100.00;100996.09;10178922;28;20050;-70
2021/12/25 00:08:25;;;;;;;6.63;1.70;;;;;;;-4.62;100.00;101011.72;10182289;28;20077;-70
2021/12/25 00:13:22;;;;;;;9.10;2.70;;;;;;;-4.62;100.00;101009.03;10167238;28;20562;-70
2021/12/25 00:18:20;;;;;;;8.77;2.83;;;;;;;-4.65;100.00;101020.16;10178582;28;20078;-70
2021/12/25 00:23:17;;;;;;;6.82;2.60;;;;;;;-4.59;100.00;101024.66;10183540;28;20074;-71
2021/12/25 00:33:51;;;;;;;7.33;2.07;;;;;;;-4.71;100.00;101042.31;10179521;28;20042;-71
2021/12/25 00:38:49;;;;;;;6.80;2.55;;;;;;;-4.82;100.00;101057.13;10180883;28;20077;-71
2021/12/25 00:43:47;;;;;;;7.00;2.33;;;;;;;-4.80;100.00;101054.22;10180283;28;20124;-71
2021/12/25 00:48:43;;;;;;;19.35;2.70;;;;;;;-4.81;100.00;101057.94;10172696;28;20034;-71
2021/12/25 00:53:40;;;;;;;7.50;2.10;;;;;;;-4.90;100.00;101066.19;10183338;28;20089;-71
2021/12/25 00:58:36;;;;;;;6.20;1.75;;;;;;;-4.87;100.00;101071.09;10181846;28;20050;-71
2021/12/25 01:03:33;;;;;;;16.27;2.70;;;;;;;-4.97;100.00;101080.53;10172318;28;20451;-71
2021/12/25 01:08:30;;;;;;;6.80;1.98;;;;;;;-4.81;100.00;101089.94;10185508;28;20069;-71
2021/12/25 01:13:34;;;;;;;7.88;2.45;;;;;;;-4.77;100.00;101101.84;10173040;28;20519;-70
2021/12/25 01:29:13;;;;;;;5.15;1.80;;;;;;;-4.89;100.00;101105.16;10177788;28;20073;-70
2021/12/25 01:34:50;;;;;;;5.22;2.10;;;;;;;-5.01;100.00;101112.13;10179446;28;20097;-70
2021/12/25 01:49:51;;;;;;;5.18;1.60;;;;;;;-5.12;100.00;101110.88;10181823;28;20089;-71
2021/12/25 01:54:47;;;;;;;9.40;2.80;;;;;;;-5.17;100.00;101123.19;10166314;28;20050;-71
2021/12/25 01:59:43;;;;;;;6.80;2.65;;;;;;;-5.21;100.00;101121.97;10171324;28;20133;-71
2021/12/25 02:04:40;;;;;;;9.45;2.55;;;;;;;-5.28;100.00;101128.09;10173687;28;20531;-71
2021/12/25 02:09:36;;;;;;;7.30;2.67;;;;;;;-5.26;100.00;101132.41;10177300;28;20504;-70
2021/12/25 02:14:35;;;;;;;7.78;2.35;;;;;;;-5.29;100.00;101130.97;10174359;28;20086;-71
2021/12/25 02:19:44;;;;;;;6.57;2.08;;;;;;;-5.33;100.00;101135.88;10171870;28;20688;-71
2021/12/25 02:24:42;;;;;;;6.97;2.20;;;;;;;-5.31;100.00;101141.84;10179590;28;20038;-70
2021/12/25 02:29:38;;;;;;;7.32;2.38;;;;;;;-5.35;100.00;101137.94;10180235;28;20038;-70
2021/12/25 02:34:36;;;;;;;7.07;1.95;;;;;;;-5.38;100.00;101148.19;10153866;28;20042;-71
2021/12/25 02:39:33;;;;;;;9.48;2.38;;;;;;;-5.40;100.00;101151.03;10186541;28;20077;-71
2021/12/25 02:44:31;;;;;;;5.38;2.00;;;;;;;-5.52;100.00;101155.31;10185645;28;20084;-72
2021/12/25 02:49:27;;;;;;;6.88;2.20;;;;;;;-5.49;100.00;101152.25;10170767;28;20663;-71
2021/12/25 02:54:24;;;;;;;6.25;2.50;;;;;;;-5.51;100.00;101148.97;10176949;28;20412;-70
2021/12/25 02:59:20;;;;;;;7.22;2.10;;;;;;;-5.51;100.00;101159.63;10187922;28;20050;-70
2021/12/25 03:04:35;;;;;;;8.68;2.10;;;;;;;-5.53;100.00;101169.66;10178403;28;20049;-71
2021/12/25 03:09:31;;;;;;;6.70;2.35;;;;;;;-5.58;100.00;101180.09;10176066;28;20566;-71
2021/12/25 03:14:40;;;;;;;7.47;2.00;;;;;;;-5.57;100.00;101181.72;9991918;28;20476;-71
2021/12/25 03:19:36;;;;;;;3.80;1.75;;;;;;;-5.63;100.00;101193.19;10167830;28;20077;-71
2021/12/25 03:24:33;;;;;;;8.00;2.00;;;;;;;-5.65;100.00;101200.56;10171466;28;20526;-71
2021/12/25 03:29:35;;;;;;;6.63;2.08;;;;;;;-5.66;100.00;101194.41;10176346;28;20137;-70
2021/12/25 03:34:31;;;;;;;7.53;2.15;;;;;;;-5.68;100.00;101188.47;10176692;28;20137;-71
2021/12/25 03:39:28;;;;;;;10.23;2.47;;;;;;;-5.71;100.00;101196.84;10188641;28;20073;-70
2021/12/25 03:44:26;;;;;;;6.32;2.28;;;;;;;-5.71;100.00;101191.50;10181071;28;20073;-71
2021/12/25 03:53:06;;;;;;;8.43;2.42;;;;;;;-5.75;100.00;101198.28;10171113;28;20138;-70
2021/12/25 04:00:07;;;;;;;8.43;2.63;;;;;;;-5.84;100.00;101210.94;10179143;28;20539;-70
2021/12/25 04:05:07;;;;;;;7.13;2.30;;;;;;;-5.84;100.00;101213.59;10179768;28;20050;-71
2021/12/25 04:10:04;;;;;;;8.70;3.47;;;;;;;-5.79;100.00;101221.81;9931155;28;20100;-70
2021/12/25 04:15:01;;;;;;;7.63;2.40;;;;;;;-5.84;100.00;101213.59;9932148;29;20057;-71
2021/12/25 04:19:57;;;;;;;8.40;2.03;;;;;;;-5.84;100.00;101213.59;10173799;28;20045;-70
2021/12/25 04:24:54;;;;;;;6.05;2.67;;;;;;;-5.89;100.00;101208.03;10177628;28;20571;-71
2021/12/25 04:29:58;;;;;;;8.05;2.20;;;;;;;-5.86;100.00;101210.28;10183497;28;20068;-71
2021/12/25 05:06:27;;;;;;;9.02;2.72;;;;;;;-5.96;100.00;101236.50;10185027;28;20088;-70
2021/12/25 05:11:23;;;;;;;7.95;2.40;;;;;;;-5.98;100.00;101239.34;10192216;28;20042;-71
2021/12/25 05:16:23;;;;;;;6.28;2.15;;;;;;;-6.01;100.00;101244.22;10181377;28;20037;-70
2021/12/25 05:21:20;;;;;;;9.38;2.53;;;;;;;-6.02;100.00;101237.28;10184919;28;20046;-70
2021/12/25 05:26:16;;;;;;;6.38;2.88;;;;;;;-5.99;100.00;101231.56;10173933;28;20046;-70
2021/12/25 05:31:15;;;;;;;5.00;2.15;;;;;;;-6.00;100.00;101237.91;10177840;28;20081;-71
2021/12/25 05:36:12;;;;;;;11.90;2.75;;;;;;;-6.05;100.00;101237.69;10175398;28;20046;-69
2021/12/25 05:41:11;;;;;;;10.70;2.38;;;;;;;-6.04;100.00;101247.28;10178081;28;20140;-70
2021/12/25 05:46:07;;;;;;;9.05;2.40;;;;;;;-6.07;100.00;101242.38;10170620;28;20054;-71
2021/12/25 05:51:05;;;;;;;8.75;2.78;;;;;;;-5.94;100.00;101250.41;10175092;28;20057;-71
2021/12/25 05:56:02;;;;;;;7.60;2.65;;;;;;;-5.90;100.00;101251.66;10170186;28;20133;-71
2021/12/25 06:00:58;;;;;;;6.90;2.08;;;;;;;-5.82;100.00;101248.84;10181603;28;20069;-71
2021/12/25 06:05:57;;;;;;;7.57;2.13;;;;;;;-5.84;100.00;101250.88;10166315;28;20136;-71
2021/12/25 06:10:53;;;;;;;11.68;2.30;;;;;;;-5.83;100.00;101246.38;10170943;28;20447;-71
2021/12/25 06:15:53;;;;;;;6.55;2.78;;;;;;;-5.84;100.00;101250.88;10183006;28;20076;-71
2021/12/25 06:20:50;;;;;;;5.05;1.90;;;;;;;-5.86;100.00;101255.56;10179990;28;20147;-71
2021/12/25 06:25:46;;;;;;;9.68;2.20;;;;;;;-5.90;100.00;101264.97;10182299;28;20116;-71
2021/12/25 06:30:44;;;;;;;8.02;2.47;;;;;;;-5.96;100.00;101263.94;10187348;28;20559;-70
2021/12/25 06:35:40;;;;;;;6.50;1.92;;;;;;;-6.07;100.00;101267.16;10184474;28;20500;-70
2021/12/25 06:40:37;;;;;;;4.55;1.70;;;;;;;-6.03;100.00;101268.41;10187007;28;20133;-70
2021/12/25 06:45:35;;;;;;;6.55;2.17;;;;;;;-6.08;100.00;101275.31;10179529;28;20065;-70
2021/12/25 06:50:31;;;;;;;4.68;2.00;;;;;;;-6.14;100.00;101282.25;10172491;28;20050;-70
2021/12/25 06:55:28;;;;;;;6.65;2.20;;;;;;;-6.05;100.00;101269.63;10178963;28;20551;-70
2021/12/25 07:00:26;;;;;;;5.22;2.13;;;;;;;-6.16;100.00;101269.13;10175360;28;20522;-71
2021/12/25 07:05:23;;;;;;;4.45;1.67;;;;;;;-6.15;100.00;101270.78;10181833;28;20053;-69
2021/12/25 07:10:20;;;;;;;10.15;1.85;;;;;;;-6.09;100.00;101279.00;10177201;28;20046;-70
2021/12/25 07:15:17;;;;;;;7.18;2.03;;;;;;;-6.12;100.00;101284.72;10171700;28;20045;-70
2021/12/25 07:20:14;;;;;;;10.00;1.50;;;;;;;-6.18;100.00;101292.44;10182198;28;20089;-70
2021/12/25 07:25:10;;;;;;;5.78;1.83;;;;;;;-6.16;100.00;101293.09;10182145;28;20081;-70
2021/12/25 07:30:08;;;;;;;8.88;1.50;;;;;;;-6.17;100.00;101309.28;10175966;28;20148;-70
2021/12/25 07:35:05;;;;;;;4.38;1.70;;;;;;;-6.09;100.00;101314.44;10179559;28;20558;-70
2021/12/25 07:40:09;;;;;;;4.07;1.60;;;;;;;-6.13;100.00;101315.84;9928269;28;20565;-69
2021/12/25 07:45:07;;;;;;;6.57;1.52;;;;;;;-6.10;100.00;101314.63;9939690;28;20053;-70
2021/12/25 07:50:04;;;;;;;8.00;1.60;;;;;;;-6.10;100.00;101319.94;10180167;28;20451;-69
2021/12/25 07:55:00;;;;;;;6.65;1.67;;;;;;;-6.07;100.00;101319.59;10172729;28;20389;-70
2021/12/25 07:59:57;;;;;;;9.07;1.90;;;;;;;-6.06;100.00;101321.22;10183280;28;20045;-70
2021/12/25 08:04:54;;;;;;;7.28;2.30;;;;;;;-5.99;100.00;101327.41;10174291;28;20069;-70
2021/12/25 08:09:51;;;;;;;5.63;2.03;;;;;;;-5.96;100.00;101343.03;10168448;28;20133;-71
2021/12/25 08:14:48;;;;;;;8.48;1.92;;;;;;;-5.91;100.00;101348.56;10161290;28;20042;-70
2021/12/25 08:19:44;;;;;;;5.53;1.70;;;;;;;-5.92;100.00;101344.22;10175312;28;20066;-70
2021/12/25 08:24:41;;;;;;;6.30;1.55;;;;;;;-5.90;100.00;101350.19;10170448;28;20136;-71
2021/12/25 08:29:40;;;;;;;6.30;2.50;;;;;;;-5.85;100.00;101341.63;10167539;28;20129;-70
2021/12/25 08:34:38;;;;;;;13.25;1.80;;;;;;;-5.79;100.00;101339.00;9965953;28;20149;-70
2021/12/25 08:39:34;;;;;;;6.15;1.95;;;;;;;-5.72;100.00;101345.19;10150101;28;20049;-71
2021/12/25 08:44:53;;;;;;;9.32;2.33;;;;;;;-5.65;100.00;101339.09;10175937;28;20076;-70
2021/12/25 08:49:52;;;;;;;6.18;2.00;;;;;;;-5.60;100.00;101331.34;10176974;28;20088;-71
2021/12/25 08:54:52;;;;;;;5.07;1.88;;;;;;;-5.52;100.00;101344.50;10173734;28;20046;-70
2021/12/25 08:59:56;;;;;;;8.52;1.83;;;;;;;-5.39;100.00;101349.91;10175885;28;20049;-69
2021/12/25 09:04:53;;;;;;;7.78;2.28;;;;;;;-5.32;100.00;101349.94;10177042;28;20059;-70
2021/12/25 09:09:49;;;;;;;8.07;2.40;;;;;;;-5.18;100.00;101362.31;10164579;28;20112;-71
2021/12/25 09:14:46;;;;;;;11.90;2.67;;;;;;;-5.01;100.00;101360.16;9984449;28;20085;-71
2021/12/25 09:19:43;;;;;;;7.53;2.75;;;;;;;-4.78;100.00;101351.81;10157311;28;20049;-70
2021/12/25 09:24:40;;;;;;;8.40;2.20;;;;;;;-4.64;100.00;101358.03;10178829;28;20065;-70
2021/12/25 09:29:37;;;;;;;5.88;2.00;;;;;;;-4.49;100.00;101374.66;10162129;28;20069;-71
2021/12/25 09:34:33;;;;;;;4.85;2.15;;;;;;;-4.28;100.00;101373.69;10175071;28;20062;-70
2021/12/25 09:39:29;;;;;;;6.32;2.40;;;;;;;-3.93;100.00;101370.00;10176798;28;20495;-72
2021/12/25 09:44:26;;;;;;;10.93;2.38;;;;;;;-3.54;100.00;101381.72;9972256;28;20147;-70
2021/12/25 09:49:22;;;;;;;7.50;2.03;;;;;;;-2.96;100.00;101385.25;10145363;28;20104;-71
2021/12/25 09:54:19;;;;;;;10.38;1.80;;;;;;;-2.52;100.00;101377.44;10022903;28;20049;-72
2021/12/25 09:59:16;;;;;;;6.88;2.22;;;;;;;-2.31;100.00;101372.78;10140297;28;20775;-70
2021/12/25 10:04:40;;;;;;;6.15;2.13;;;;;;;-2.28;100.00;101383.06;10171645;28;20046;-70
2021/12/25 10:09:36;;;;;;;8.27;2.38;;;;;;;-2.01;100.00;101378.34;10179750;28;20125;-70
2021/12/25 10:14:34;;;;;;;3.83;1.73;;;;;;;-1.92;100.00;101377.03;10177028;28;20131;-70
2021/12/25 10:19:31;;;;;;;6.32;1.98;;;;;;;-1.75;100.00;101369.25;10183909;28;20508;-71
2021/12/25 10:24:29;;;;;;;4.95;1.80;;;;;;;-1.56;100.00;101370.94;10185600;28;20450;-70
2021/12/25 10:29:28;;;;;;;4.90;2.00;;;;;;;-1.30;100.00;101363.66;10188555;28;20065;-71
2021/12/25 10:34:29;;;;;;;10.55;2.28;;;;;;;-1.31;100.00;101370.88;10182640;28;20133;-71
2021/12/25 10:39:27;;;;;;;8.82;1.77;;;;;;;-0.98;100.00;101368.88;10177674;28;20073;-70
2021/12/25 10:44:31;;;;;;;8.07;1.92;;;;;;;-0.80;100.00;101366.16;10178963;28;20069;-71
2021/12/25 10:49:31;;;;;;;7.13;1.88;;;;;;;-0.72;100.00;101365.88;10176270;28;20068;-72
2021/12/25 10:54:37;;;;;;;5.60;1.95;;;;;;;-0.73;100.00;101366.91;10174286;28;20045;-70
2021/12/25 10:59:47;;;;;;;5.30;1.50;;;;;;;-0.55;100.00;101370.63;10186371;28;20149;-71
2021/12/25 11:04:44;;;;;;;7.43;2.35;;;;;;;-0.62;100.00;101359.97;10176303;28;20085;-71
2021/12/25 11:10:00;;;;;;;9.40;2.88;;;;;;;-0.66;100.00;101356.88;10178587;28;20120;-70
2021/12/25 11:15:21;;;;;;;5.82;2.13;;;;;;;-0.48;100.00;101347.97;10183635;28;20046;-70
2021/12/25 11:20:31;;;;;;;7.35;2.08;;;;;;;-0.44;100.00;101356.41;10182868;28;20531;-70
2021/12/25 11:25:30;;;;;;;7.85;2.20;;;;;;;-0.79;100.00;101338.28;10178527;28;20073;-70
2021/12/25 11:30:31;;;;;;;5.30;2.30;;;;;;;-0.51;100.00;101347.59;10176074;28;20129;-71
2021/12/25 11:35:28;;;;;;;4.88;1.48;;;;;;;-0.36;100.00;101345.31;10179158;28;20412;-71
2021/12/25 11:40:28;;;;;;;7.13;1.38;;;;;;;-0.12;100.00;101348.06;10176614;28;20464;-70
2021/12/25 11:45:29;;;;;;;7.38;1.75;;;;;;;-0.08;100.00;101349.25;10177978;28;20049;-71
2021/12/25 11:50:32;;;;;;;5.13;1.58;;;;;;;-0.01;100.00;101355.31;10178278;28;21454;-70
2021/12/25 12:00:43;;;;;;;3.30;1.08;;;;;;;0.09;100.00;101347.50;10157483;28;20124;-71
2021/12/25 12:05:47;;;;;;;6.22;1.52;;;;;;;0.23;100.00;101355.34;10019024;28;20077;-70
2021/12/25 12:10:43;;;;;;;4.82;1.00;;;;;;;0.61;98.91;101347.63;10181196;28;20046;-71
2021/12/25 12:15:49;;;;;;;4.00;1.45;;;;;;;1.03;100.00;101339.34;10169137;28;20099;-70
2021/12/25 12:20:46;;;;;;;3.55;0.93;;;;;;;1.56;100.00;101341.97;10174822;28;20045;-71
2021/12/25 12:25:48;;;;;;;5.20;1.38;;;;;;;1.82;94.82;101335.13;10177958;28;20129;-70
2021/12/25 12:30:49;;;;;;;2.78;1.05;;;;;;;2.20;95.98;101331.66;10183808;28;20583;-70
2021/12/25 12:35:50;;;;;;;7.75;2.42;;;;;;;2.48;90.59;101332.63;10178060;28;20038;-71
2021/12/25 12:41:09;;;;;;;9.65;2.95;;;;;;;2.64;87.23;101337.16;10175854;28;20046;-70
2021/12/25 12:46:06;;;;;;;10.27;3.28;;;;;;;2.73;88.32;101335.66;10173877;28;20129;-71
2021/12/25 12:51:02;;;;;;;10.13;2.70;;;;;;;2.04;80.69;101343.28;10178666;28;20049;-70
2021/12/25 12:56:03;;;;;;;8.98;2.70;;;;;;;2.04;81.20;101340.59;10172748;28;20108;-70
2021/12/25 13:01:09;;;;;;;8.13;2.78;;;;;;;2.29;86.00;101348.28;10171601;28;20124;-71
2021/12/25 13:06:12;;;;;;;8.57;3.20;;;;;;;2.15;88.76;101355.88;10170369;28;20053;-70
2021/12/25 13:11:32;;;;;;;10.90;3.00;;;;;;;2.01;91.52;101349.19;10178202;28;20074;-70
2021/12/25 13:16:40;;;;;;;8.10;2.58;;;;;;;1.98;84.22;101366.69;10187220;28;20137;-70
2021/12/25 13:21:37;;;;;;;9.13;2.50;;;;;;;1.85;90.20;101362.41;10181502;28;20038;-71
2021/12/25 13:26:39;;;;;;;9.38;2.40;;;;;;;1.72;90.91;101357.34;10183068;28;20050;-71
2021/12/25 13:31:38;;;;;;;;;;;;;;;1.67;89.70;101351.84;10101174;28;20071;-71
2021/12/25 13:36:35;;;;;;;5.13;1.35;;;;;;;1.18;80.21;101356.84;10001981;28;19945;-71
2021/12/25 13:41:35;;;;;;;7.88;1.35;;;;;;;1.03;80.67;101358.19;10178499;28;20058;-70
2021/12/25 13:47:08;;;;;;;14.60;1.55;;;;;;;0.90;85.38;101369.22;10177057;28;20096;-69
2021/12/25 13:52:23;;;;;;;9.77;2.60;;;;;;;0.49;88.09;101371.03;10182424;28;20496;-70
2021/12/25 13:57:21;;;;;;;8.43;1.92;;;;;;;0.26;93.32;101366.47;10174528;28;20113;-71
2021/12/25 14:02:20;;;;;;;4.03;1.48;;;;;;;-0.11;88.84;101369.34;10174491;28;20432;-69
2021/12/25 14:07:19;;;;;;;6.18;1.50;;;;;;;0.00;95.53;101378.50;10173859;28;20045;-69
2021/12/25 14:12:21;;;;;;;15.88;1.95;;;;;;;-0.14;100.00;101363.59;10185044;28;20046;-71
2021/12/25 14:17:18;;;;;;;9.10;2.50;;;;;;;-0.25;100.00;101368.72;10191812;28;20050;-71
2021/12/25 14:22:19;;;;;;;4.43;1.83;;;;;;;-0.29;100.00;101372.91;10069477;28;20077;-70
2021/12/25 14:27:22;;;;;;;5.55;1.73;;;;;;;-0.33;100.00;101377.09;10048503;28;20137;-70
2021/12/25 14:32:29;;;;;;;6.30;1.90;;;;;;;-0.38;100.00;101381.53;10185307;28;20184;-71
2021/12/25 14:37:37;;;;;;;5.70;1.83;;;;;;;-0.46;100.00;101375.44;10184543;28;20073;-71
2021/12/25 14:42:43;;;;;;;9.10;2.53;;;;;;;-0.66;100.00;101370.31;10177068;28;20161;-71
2021/12/25 14:47:52;;;;;;;7.80;2.10;;;;;;;-0.80;100.00;101368.84;10181488;28;20482;-71
2021/12/25 14:53:09;;;;;;;7.88;2.75;;;;;;;-1.06;100.00;101370.81;10183141;28;20137;-69
2021/12/25 14:58:07;;;;;;;6.07;1.90;;;;;;;-1.18;100.00;101372.63;10182662;28;20096;-71
2021/12/25 15:03:21;;;;;;;6.63;1.80;;;;;;;-1.27;100.00;101384.69;10174750;28;20050;-70
2021/12/25 15:08:25;;;;;;;8.10;2.25;;;;;;;-1.02;100.00;101383.78;10182585;28;20068;-71
2021/12/25 15:13:24;;;;;;;7.78;2.30;;;;;;;-1.10;100.00;101385.72;10180203;28;20072;-70
2021/12/25 15:18:25;;;;;;;7.22;2.10;;;;;;;-1.20;100.00;101382.75;10186477;28;20054;-70
2021/12/25 15:23:22;;;;;;;7.00;2.35;;;;;;;-1.28;100.00;101383.03;10180546;28;20085;-71
2021/12/25 15:28:22;;;;;;;8.68;2.42;;;;;;;-1.38;100.00;101382.75;10175613;28;20504;-70
2021/12/25 15:33:30;;;;;;;6.43;2.45;;;;;;;-1.45;100.00;101382.00;10186490;28;20065;-70
2021/12/25 15:38:29;;;;;;;7.03;2.67;;;;;;;-1.57;100.00;101385.38;10177590;28;20030;-71
2021/12/25 15:43:25;;;;;;;9.27;2.75;;;;;;;-1.73;100.00;101391.31;10183148;28;20108;-71
2021/12/25 15:48:22;;;;;;;8.20;2.58;;;;;;;-1.80;100.00;101385.19;10174415;28;20711;-70
2021/12/25 15:53:19;;;;;;;9.75;3.08;;;;;;;-1.91;100.00;101379.47;10167010;28;20078;-71
2021/12/25 15:58:19;;;;;;;11.10;3.28;;;;;;;-2.03;100.00;101385.78;10176704;28;20108;-70
2021/12/25 16:03:16;;;;;;;8.65;2.90;;;;;;;-2.12;100.00;101390.56;10018062;28;20396;-70
2021/12/25 16:08:13;;;;;;;9.00;2.95;;;;;;;-2.17;100.00;101382.38;10082160;28;20567;-69
2021/12/25 16:13:12;;;;;;;8.45;2.70;;;;;;;-2.28;100.00;101385.75;10181306;28;20049;-70
2021/12/25 16:18:10;;;;;;;11.40;2.72;;;;;;;-2.38;100.00;101379.00;10187621;28;20492;-70
2021/12/25 16:23:07;;;;;;;7.95;3.55;;;;;;;-2.45;100.00;101388.94;10178574;28;20096;-70
2021/12/25 16:28:04;;;;;;;10.20;3.47;;;;;;;-2.52;100.00;101398.88;10181306;28;20112;-70
2021/12/25 16:33:02;;;;;;;6.65;3.60;;;;;;;-2.63;100.00;101386.16;10034187;28;20060;-70
2021/12/25 16:37:59;;;;;;;11.65;3.58;;;;;;;-2.69;100.00;101393.19;10070919;28;20050;-70
2021/12/25 16:42:55;;;;;;;8.95;3.63;;;;;;;-2.80;100.00;101396.53;10179220;28;20586;-71
2021/12/25 16:47:52;;;;;;;11.48;3.80;;;;;;;-2.87;100.00;101396.56;10178285;28;20108;-70
2021/12/25 16:52:49;;;;;;;11.55;4.88;;;;;;;-2.91;100.00;101406.03;10172668;28;20132;-70
2021/12/25 16:57:46;;;;;;;13.02;4.75;;;;;;;-2.97;100.00;101406.84;10174148;28;20050;-70
2021/12/25 17:02:43;;;;;;;12.75;4.68;;;;;;;-2.99;100.00;101403.59;10176896;28;20063;-70
2021/12/25 17:07:39;;;;;;;15.65;4.60;;;;;;;-3.08;100.00;101410.22;10168232;28;20046;-70
2021/12/25 17:12:37;;;;;;;12.80;5.07;;;;;;;-3.18;100.00;101402.59;10169349;28;20097;-71
2021/12/25 17:17:34;;;;;;;17.00;6.05;;;;;;;-3.24;100.00;101406.94;10176195;28;20038;-70
2021/12/25 17:22:31;;;;;;;14.20;5.28;;;;;;;-3.30;100.00;101406.97;10175073;28;20124;-70
2021/12/25 17:27:28;;;;;;;15.20;6.03;;;;;;;-3.32;100.00;101404.47;10176693;28;20079;-70
2021/12/25 17:32:24;;;;;;;13.50;6.18;;;;;;;-3.40;100.00;101404.72;10171099;28;20080;-70
2021/12/25 17:37:21;;;;;;;20.25;7.70;;;;;;;-3.40;100.00;101402.03;10176319;28;20133;-71
2021/12/25 17:42:17;;;;;;;20.92;8.15;;;;;;;-3.49;100.00;101403.28;10180974;28;20042;-69
2021/12/25 17:47:14;;;;;;;20.77;8.50;;;;;;;-3.43;100.00;101397.94;10183050;28;20065;-70
2021/12/25 17:52:12;;;;;;;22.35;9.68;;;;;;;-3.51;100.00;101400.00;10053769;28;20164;-71
2021/12/25 17:57:09;;;;;;;23.35;9.60;;;;;;;-3.56;100.00;101402.47;10026690;28;20464;-71
2021/12/25 18:02:06;;;;;;;24.50;9.80;;;;;;;-3.62;100.00;101415.66;10176801;28;20088;-70
2021/12/25 18:07:03;;;;;;;24.13;10.02;;;;;;;-3.65;100.00;101424.06;10175584;28;20108;-71
2021/12/25 18:12:00;;;;;;;22.58;9.00;;;;;;;-3.67;100.00;101423.44;10192835;28;20045;-71
2021/12/25 18:16:57;;;;;;;20.58;9.68;;;;;;;-3.78;100.00;101426.75;10187668;28;20089;-70
2021/12/25 18:21:54;;;;;;;23.83;9.40;;;;;;;-3.74;100.00;101432.50;10186095;28;20104;-69
2021/12/25 18:26:50;;;;;;;18.20;8.65;;;;;;;-3.84;100.00;101438.25;10182609;28;20061;-70
2021/12/25 18:31:47;;;;;;;22.23;8.98;;;;;;;-3.89;100.00;101454.06;10179364;28;20058;-71
2021/12/25 18:36:44;;;;;;;20.13;8.02;;;;;;;-3.81;100.00;101453.88;10183509;28;20042;-70
2021/12/25 18:41:40;;;;;;;16.85;7.30;;;;;;;-3.95;100.00;101446.88;10183496;28;20042;-71
2021/12/25 18:46:37;;;;;;;16.02;7.05;;;;;;;-3.94;100.00;101453.88;10184238;28;20495;-70
2021/12/25 18:51:33;;;;;;;17.92;7.18;;;;;;;-4.03;100.00;101451.38;10183324;28;20487;-70
2021/12/25 18:56:30;;;;;;;18.67;7.60;;;;;;;-3.98;100.00;101453.44;10183019;28;20100;-71
2021/12/25 19:01:26;;;;;;;16.30;7.72;;;;;;;-4.07;100.00;101455.47;10170397;28;20133;-70
2021/12/25 19:06:23;;;;;;;15.32;7.15;;;;;;;-4.20;100.00;101471.50;10188800;28;20046;-70
2021/12/25 19:11:21;;;;;;;19.17;7.60;;;;;;;-4.20;100.00;101470.66;10130811;28;20103;-70
2021/12/25 19:16:19;;;;;;;15.90;7.82;;;;;;;-4.21;100.00;101464.50;10034270;28;20714;-69
2021/12/25 19:21:15;;;;;;;18.70;6.85;;;;;;;-4.27;100.00;101475.97;10184264;28;20153;-70
2021/12/25 19:26:12;;;;;;;13.50;6.93;;;;;;;-4.29;100.00;101472.69;10191542;28;20045;-70
2021/12/25 19:31:09;;;;;;;16.30;7.20;;;;;;;-4.33;100.00;101460.75;10180450;28;20046;-70
2021/12/25 19:36:07;;;;;;;12.05;6.05;;;;;;;-4.36;100.00;101462.00;10179356;28;20046;-69
2021/12/25 19:41:04;;;;;;;16.48;7.43;;;;;;;-4.35;100.00;101462.81;10185090;28;20042;-70
2021/12/25 19:46:02;;;;;;;23.02;9.75;;;;;;;-4.40;100.00;101470.59;10185150;28;20448;-69
2021/12/25 19:51:02;;;;;;;29.38;9.80;;;;;;;-4.44;100.00;101470.16;10169719;28;20046;-71
2021/12/25 19:55:59;;;;;;;20.35;9.27;;;;;;;-4.50;100.00;101461.13;10180001;28;20041;-70
2021/12/25 20:01:03;;;;;;;17.13;8.25;;;;;;;-4.55;100.00;101458.22;10133705;28;20151;-70
2021/12/25 20:06:02;;;;;;;19.58;8.60;;;;;;;-4.59;100.00;101462.31;9986330;28;20042;-70
2021/12/25 20:10:58;;;;;;;17.42;9.32;;;;;;;-4.58;100.00;101468.47;10180868;28;20567;-71
2021/12/25 20:15:58;;;;;;;22.65;9.68;;;;;;;-4.62;100.00;101468.03;10183063;28;20067;-69
2021/12/25 20:20:55;;;;;;;19.63;9.95;;;;;;;-4.66;100.00;101462.28;10187198;28;20584;-70
2021/12/25 20:25:51;;;;;;;23.90;9.70;;;;;;;-4.71;100.00;101447.88;10181997;28;20131;-70
2021/12/25 20:30:49;;;;;;;21.70;9.88;;;;;;;-4.73;100.00;101450.75;10185319;28;20041;-70
2021/12/25 20:35:47;;;;;;;20.63;10.18;;;;;;;-4.71;100.00;101454.06;10171702;28;20713;-70
2021/12/25 20:40:44;;;;;;;20.48;10.18;;;;;;;-4.71;100.00;101447.88;10181178;28;20068;-71
2021/12/25 20:45:47;;;;;;;22.73;10.75;;;;;;;-4.78;100.00;101441.69;10186099;28;20065;-71
2021/12/25 20:50:50;;;;;;;22.35;10.68;;;;;;;-4.76;100.00;101450.31;10178368;28;20096;-70
2021/12/25 20:56:05;;;;;;;17.02;9.77;;;;;;;-4.80;100.00;101457.91;10168379;28;20141;-70
2021/12/25 21:01:03;;;;;;;18.35;9.30;;;;;;;-4.78;100.00;101463.03;10116402;28;20048;-70
2021/12/25 21:06:00;;;;;;;22.77;9.63;;;;;;;-4.86;100.00;101456.84;9974079;28;20070;-70
2021/12/25 21:10:57;;;;;;;21.90;10.13;;;;;;;-4.91;100.00;101453.94;10176614;28;20101;-71
2021/12/25 21:15:54;;;;;;;20.63;9.85;;;;;;;-4.95;100.00;101451.88;10170063;28;20124;-69
2021/12/25 21:20:51;;;;;;;20.92;9.02;;;;;;;-4.99;100.00;101454.13;10164442;28;20049;-70
2021/12/25 21:25:52;;;;;;;22.83;10.45;;;;;;;-5.01;100.00;101442.81;10169880;28;20088;-70
2021/12/25 21:30:49;;;;;;;17.65;9.20;;;;;;;-5.09;100.00;101440.31;10162043;28;20045;-69
2021/12/25 21:35:48;;;;;;;18.17;9.00;;;;;;;-5.07;100.00;101428.41;10175462;28;20145;-70
2021/12/25 21:40:47;;;;;;;17.92;8.82;;;;;;;-5.13;100.00;101431.03;10185467;28;20063;-69
2021/12/25 21:45:43;;;;;;;20.45;9.00;;;;;;;-5.18;100.00;101425.47;10188946;28;20042;-70
2021/12/25 21:50:41;;;;;;;20.08;8.63;;;;;;;-5.21;100.00;101436.56;10146235;28;20049;-69
2021/12/25 21:55:38;;;;;;;24.88;9.30;;;;;;;-5.20;100.00;101439.00;10044109;28;20077;-69
2021/12/25 22:00:39;;;;;;;21.50;9.88;;;;;;;-5.29;100.00;101430.34;10168197;28;20069;-69
2021/12/25 22:05:40;;;;;;;21.90;9.98;;;;;;;-5.26;100.00;101415.00;10170784;28;20056;-69
2021/12/25 22:10:39;;;;;;;21.08;9.68;;;;;;;-5.28;100.00;101426.66;10174486;28;20080;-70
2021/12/25 22:15:36;;;;;;;17.48;8.63;;;;;;;-5.23;100.00;101422.59;10176557;28;20581;-70
2021/12/25 22:20:34;;;;;;;16.08;8.63;;;;;;;-5.34;100.00;101435.47;10174574;28;20129;-70
2021/12/25 22:25:31;;;;;;;19.00;9.20;;;;;;;-5.34;100.00;101432.78;10184988;28;20065;-70
2021/12/25 22:30:30;;;;;;;18.00;8.70;;;;;;;-5.40;100.00;101428.22;10177479;28;20444;-69
2021/12/25 22:35:28;;;;;;;24.30;9.40;;;;;;;-5.46;100.00;101423.66;10181890;28;20076;-69
2021/12/25 22:40:24;;;;;;;14.25;8.07;;;;;;;-5.48;100.00;101414.22;10180626;28;20046;-70
2021/12/25 22:45:22;;;;;;;23.15;8.95;;;;;;;-5.52;100.00;101414.63;10187392;28;20050;-69
2021/12/25 22:50:19;;;;;;;18.60;8.93;;;;;;;-5.56;100.00;101412.53;10168678;28;20042;-69
2021/12/25 22:55:19;;;;;;;20.67;8.90;;;;;;;-5.61;100.00;101420.28;10185503;28;20053;-69
2021/12/25 23:00:40;;;;;;;21.60;9.52;;;;;;;-5.57;100.00;101418.88;10172631;28;20360;-70
2021/12/25 23:05:40;;;;;;;17.65;8.77;;;;;;;-5.61;100.00;101420.28;10175626;28;20574;-70
2021/12/25 23:10:38;;;;;;;15.98;8.73;;;;;;;-5.61;100.00;101420.28;10177374;28;20551;-70
2021/12/25 23:15:38;;;;;;;19.25;8.60;;;;;;;-5.67;100.00;101423.72;10176501;28;20112;-69
2021/12/25 23:20:35;;;;;;;18.20;9.52;;;;;;;-5.66;100.00;101417.34;10180830;28;20072;-69
2021/12/25 23:25:31;;;;;;;26.00;11.30;;;;;;;-5.68;100.00;101408.75;10168435;28;20053;-70
2021/12/25 23:30:28;;;;;;;22.33;10.45;;;;;;;-5.67;100.00;101415.72;10186109;28;20129;-69
2021/12/25 23:35:26;;;;;;;24.75;11.90;;;;;;;-5.67;100.00;101418.38;10179758;28;20134;-69
2021/12/25 23:40:24;;;;;;;27.70;13.30;;;;;;;-5.77;100.00;101406.22;10178981;28;20455;-70
2021/12/25 23:45:27;;;;;;;24.85;13.48;;;;;;;-5.82;100.00;101403.31;10182689;28;20054;-71